createdAt,value
2019-03-09T00:01:20.011Z,3.8
2019-03-09T00:06:25.211Z,4
2019-03-09T00:11:30.202Z,4.4
2019-03-09T00:16:35.879Z,3.2
2019-03-09T00:21:40.907Z,3.8
2019-03-09T00:26:45.980Z,3.7
2019-03-09T00:31:52.175Z,3.5
2019-03-09T00:36:58.235Z,3.6
2019-03-09T00:42:03.235Z,3.2
2019-03-09T00:47:08.379Z,3.5
2019-03-09T00:52:12.336Z,3.6
2019-03-09T00:57:17.836Z,3.4
2019-03-09T01:02:23.017Z,3.1
2019-03-09T01:07:28.957Z,3.6
2019-03-09T01:12:34.737Z,2.5
2019-03-09T01:17:39.850Z,3.1
2019-03-09T01:22:44.760Z,3
2019-03-09T01:27:49.936Z,3.4
2019-03-09T01:32:55.675Z,3.2
2019-03-09T01:38:00.892Z,3
2019-03-09T01:43:05.898Z,2.9
2019-03-09T01:48:11.653Z,2.3
2019-03-09T01:53:17.191Z,3.2
2019-03-09T01:58:23.075Z,4.3
2019-03-09T02:03:28.156Z,2.7
2019-03-09T02:08:33.332Z,2.4
2019-03-09T02:13:38.920Z,3.2
2019-03-09T02:18:44.519Z,2.7
2019-03-09T02:23:49.524Z,3.4
2019-03-09T02:28:55.285Z,2.5
2019-03-09T02:34:00.849Z,2.3
2019-03-09T02:39:06.224Z,2.3
2019-03-09T02:44:11.985Z,2.4
2019-03-09T02:49:18.314Z,2.2
2019-03-09T02:54:23.257Z,3.2
2019-03-09T02:59:28.349Z,2.4
2019-03-09T03:04:34.081Z,1.9
2019-03-09T03:09:39.219Z,2.3
2019-03-09T03:14:44.870Z,2
2019-03-09T03:19:50.825Z,2.7
2019-03-09T03:24:56.317Z,2.3
2019-03-09T03:30:01.363Z,2.3
2019-03-09T03:35:06.998Z,1.9
2019-03-09T03:40:12.769Z,2.2
2019-03-09T03:45:17.842Z,2
2019-03-09T03:50:22.917Z,1.8
2019-03-09T03:55:28.491Z,1.7
2019-03-09T04:00:34.339Z,2
2019-03-09T04:05:39.513Z,2.5
2019-03-09T04:10:45.349Z,2
2019-03-09T04:15:49.532Z,1.8
2019-03-09T04:20:54.614Z,2.1
2019-03-09T04:26:00.077Z,1.5
2019-03-09T04:31:05.921Z,1.6
2019-03-09T04:36:11.024Z,1.9
2019-03-09T04:41:16.159Z,1.7
2019-03-09T04:46:21.188Z,1.8
2019-03-09T04:51:26.298Z,1.6
2019-03-09T04:56:31.339Z,1.8
2019-03-09T05:01:35.488Z,2.1
2019-03-09T05:06:40.510Z,2.3
2019-03-09T05:11:46.042Z,1.8
2019-03-09T05:16:51.145Z,2.4
2019-03-09T05:21:56.749Z,1.6
2019-03-09T05:27:01.845Z,2.3
2019-03-09T05:32:06.936Z,1.9
2019-03-09T05:37:12.581Z,1.9
2019-03-09T05:42:18.545Z,2.7
2019-03-09T05:47:23.765Z,1.8
2019-03-09T05:52:29.447Z,1.8
2019-03-09T05:57:34.970Z,1.8
2019-03-09T06:02:39.968Z,2.2
2019-03-09T06:07:45.002Z,2.2
2019-03-09T06:12:50.116Z,2.8
2019-03-09T06:17:56.222Z,2.1
2019-03-09T06:23:01.743Z,2
2019-03-09T06:28:07.822Z,1.9
2019-03-09T06:33:12.976Z,2.1
2019-03-09T06:38:17.929Z,2.3
2019-03-09T06:43:23.130Z,2.1
2019-03-09T06:48:28.411Z,2
2019-03-09T06:53:34.572Z,1.7
2019-03-09T06:58:40.099Z,2.5
2019-03-09T07:03:45.569Z,2.2
2019-03-09T07:08:51.235Z,2.1
2019-03-09T07:13:56.555Z,2.7
2019-03-09T07:19:01.542Z,2.2
2019-03-09T07:24:06.692Z,1.9
2019-03-09T07:29:11.727Z,2.4
2019-03-09T07:34:16.934Z,2.4
2019-03-09T07:39:22.773Z,2.1
2019-03-09T07:44:28.126Z,2.5
2019-03-09T07:49:34.130Z,1.9
2019-03-09T07:54:40.493Z,2.4
2019-03-09T07:59:45.807Z,2
2019-03-09T08:04:51.092Z,2.4
2019-03-09T08:09:56.294Z,2.5
2019-03-09T08:15:02.760Z,2.2
2019-03-09T08:20:10.232Z,2
2019-03-09T08:25:16.016Z,2.6
2019-03-09T08:30:21.138Z,2.8
2019-03-09T08:35:26.326Z,2
2019-03-09T08:40:31.787Z,2.1
2019-03-09T08:45:38.045Z,1.7
2019-03-09T08:50:43.457Z,2.5
2019-03-09T08:55:48.656Z,2.1
2019-03-09T09:00:54.203Z,2.2
2019-03-09T09:06:01.848Z,1.9
2019-03-09T09:11:07.006Z,2.1
2019-03-09T09:16:12.842Z,2.9
2019-03-09T09:21:18.004Z,3.2
2019-03-09T09:26:23.686Z,2.9
2019-03-09T09:31:29.081Z,2.6
2019-03-09T09:36:34.180Z,2.3
2019-03-09T09:41:39.050Z,2
2019-03-09T09:46:44.156Z,2.3
2019-03-09T09:51:49.030Z,2.2
2019-03-09T09:56:54.089Z,2.5
2019-03-09T10:01:59.077Z,2.1
2019-03-09T10:07:04.099Z,3.2
2019-03-09T10:12:09.150Z,2.7
2019-03-09T10:17:14.807Z,2.5
2019-03-09T10:22:19.974Z,2.7
2019-03-09T10:27:25.715Z,2.7
2019-03-09T10:32:30.854Z,2.4
2019-03-09T10:37:37.150Z,2.2
2019-03-09T10:42:42.086Z,1.7
2019-03-09T10:47:47.226Z,1.8
2019-03-09T10:52:52.876Z,1.8
2019-03-09T10:57:57.987Z,1.8
2019-03-09T11:03:03.214Z,1.9
2019-03-09T11:08:08.456Z,1.8
2019-03-09T11:13:15.427Z,1.9
2019-03-09T11:18:21.375Z,2
2019-03-09T11:23:28.997Z,2.2
2019-03-09T11:28:34.397Z,1.9
2019-03-09T11:33:39.443Z,2.1
2019-03-09T11:38:44.676Z,2
2019-03-09T11:43:53.874Z,2.1
2019-03-09T11:48:59.569Z,1.8
2019-03-09T11:54:04.234Z,1.9
2019-03-09T11:59:09.922Z,2.1
2019-03-09T12:04:15.017Z,1.7
2019-03-09T12:09:20.166Z,1.8
2019-03-09T12:14:25.212Z,1.5
2019-03-09T12:19:30.582Z,1.9
2019-03-09T12:24:35.972Z,2
2019-03-09T12:29:41.211Z,2
2019-03-09T12:34:47.178Z,2.2
2019-03-09T12:39:52.952Z,1.6
2019-03-09T12:44:58.838Z,1.5
2019-03-09T12:50:04.417Z,1.8
2019-03-09T12:55:09.543Z,1.6
2019-03-09T13:00:15.271Z,1.6
2019-03-09T13:05:21.251Z,1.8
2019-03-09T13:10:26.430Z,1.6
2019-03-09T13:15:31.742Z,1.6
2019-03-09T13:20:37.143Z,1.6
2019-03-09T13:25:42.076Z,1.4
2019-03-09T13:30:50.672Z,1.5
2019-03-09T13:35:56.550Z,1.6
2019-03-09T13:41:02.151Z,1.6
2019-03-09T13:46:07.147Z,1.6
2019-03-09T13:51:12.148Z,1.7
2019-03-09T13:56:17.378Z,1.4
2019-03-09T14:01:22.498Z,1.5
2019-03-09T14:06:28.151Z,1.8
2019-03-09T14:11:33.879Z,1.7
2019-03-09T14:16:37.659Z,1.7
2019-03-09T14:21:43.714Z,1.7
2019-03-09T14:26:49.947Z,1.6
2019-03-09T14:31:54.291Z,2.1
2019-03-09T14:37:00.243Z,1.6
2019-03-09T14:42:06.128Z,1.8
2019-03-09T14:47:14.305Z,1.5
2019-03-09T14:52:18.954Z,1.5
2019-03-09T14:57:24.093Z,1.5
2019-03-09T15:02:29.247Z,1.4
2019-03-09T15:07:34.835Z,1.4
2019-03-09T15:12:39.990Z,1.8
2019-03-09T15:17:45.857Z,1.7
2019-03-09T15:22:51.854Z,1.5
2019-03-09T15:27:56.830Z,1.9
2019-03-09T15:33:02.732Z,2.3
2019-03-09T15:38:08.369Z,1.7
2019-03-09T15:43:14.140Z,1.7
2019-03-09T15:48:19.696Z,2
2019-03-09T15:53:25.784Z,1.5
2019-03-09T15:58:34.032Z,1.8
2019-03-09T16:03:32.440Z,1.5
2019-03-09T16:08:37.415Z,1.6
2019-03-09T16:13:43.592Z,1.4
2019-03-09T16:18:48.774Z,1.6
2019-03-09T16:23:54.271Z,1.4
2019-03-09T16:29:00.228Z,1.5
2019-03-09T16:34:05.417Z,1.8
2019-03-09T16:39:10.472Z,1.6
2019-03-09T16:44:18.945Z,1.8
2019-03-09T16:49:26.722Z,2.2
2019-03-09T16:54:36.243Z,1.7
2019-03-09T16:59:41.283Z,1.8
2019-03-09T17:04:49.322Z,1.9
2019-03-09T17:09:54.371Z,1.6
2019-03-09T17:14:59.854Z,1.9
2019-03-09T17:20:05.403Z,1.7
2019-03-09T17:25:10.656Z,1.9
2019-03-09T17:30:15.696Z,3.6
2019-03-09T17:35:22.068Z,2
2019-03-09T17:40:27.056Z,2.6
2019-03-09T17:45:32.037Z,2.1
2019-03-09T17:50:36.902Z,1.5
2019-03-09T17:55:42.066Z,2.3
2019-03-09T18:00:47.914Z,2.1
2019-03-09T18:05:51.996Z,2.1
2019-03-09T18:10:57.694Z,1.7
2019-03-09T18:16:02.825Z,2
2019-03-09T18:21:12.140Z,1.9
2019-03-09T18:26:19.216Z,1.9
2019-03-09T18:31:29.891Z,2.1
2019-03-09T18:36:34.878Z,2.5
2019-03-09T18:41:42.801Z,2.1
2019-03-09T18:46:47.898Z,2.5
2019-03-09T18:51:53.060Z,2.9
2019-03-09T18:56:57.299Z,2
2019-03-09T19:02:02.996Z,2.4
2019-03-09T19:07:07.610Z,2.3
2019-03-09T19:12:13.248Z,2.2
2019-03-09T19:17:18.408Z,2.1
2019-03-09T19:22:24.549Z,2.8
2019-03-09T19:27:29.783Z,2.8
2019-03-09T19:32:35.492Z,2.5
2019-03-09T19:37:41.187Z,2.3
2019-03-09T19:42:46.087Z,3.1
2019-03-09T19:47:53.709Z,2.5
2019-03-09T19:52:59.414Z,3
2019-03-09T19:58:05.081Z,2.5
2019-03-09T20:03:10.107Z,2.3
2019-03-09T20:08:15.475Z,2.8
2019-03-09T20:13:20.894Z,2.5
2019-03-09T20:18:28.183Z,3
2019-03-09T20:23:33.407Z,2.7
2019-03-09T20:28:38.567Z,2.2
2019-03-09T20:33:44.150Z,2.4
2019-03-09T20:38:50.528Z,2.3
2019-03-09T20:43:55.809Z,2.7
2019-03-09T20:49:01.056Z,2.3
2019-03-09T20:54:06.844Z,2.6
2019-03-09T20:59:12.349Z,2.8
2019-03-09T21:04:17.493Z,2.5
2019-03-09T21:09:22.662Z,3.3
2019-03-09T21:14:28.508Z,3.2
2019-03-09T21:19:33.970Z,2.5
2019-03-09T21:24:38.915Z,2.4
2019-03-09T21:29:43.956Z,2.6
2019-03-09T21:34:49.612Z,2.4
2019-03-09T21:39:55.448Z,2.5
2019-03-09T21:45:00.482Z,2.7
2019-03-09T21:50:06.773Z,2.3
2019-03-09T21:55:12.153Z,3.3
2019-03-09T22:00:17.177Z,2.8
2019-03-09T22:05:22.175Z,2.6
2019-03-09T22:10:28.245Z,3
2019-03-09T22:15:33.884Z,2.4
2019-03-09T22:20:38.936Z,2.6
2019-03-09T22:25:44.260Z,2.5
2019-03-09T22:30:50.559Z,2.7
2019-03-09T22:35:55.429Z,2.5
2019-03-09T22:40:59.752Z,2.3
2019-03-09T22:46:05.595Z,2.7
2019-03-09T22:51:11.519Z,2.5
2019-03-09T22:56:16.426Z,2.4
2019-03-09T23:01:22.365Z,2.8
2019-03-09T23:06:28.504Z,2.3
2019-03-09T23:11:33.662Z,2.6
2019-03-09T23:16:38.854Z,2.9
2019-03-09T23:21:44.552Z,2.8
2019-03-09T23:26:49.506Z,2.3
2019-03-09T23:31:55.204Z,2.4
2019-03-09T23:37:00.208Z,2.5
2019-03-09T23:42:06.107Z,3.1
2019-03-09T23:47:11.427Z,2.6
2019-03-09T23:52:16.988Z,2.9
2019-03-09T23:57:22.426Z,2.5
